createdAt,value
2018-12-24T00:01:43.028Z,159.75
2018-12-24T00:04:15.060Z,157.75
2018-12-24T00:06:47.004Z,154.75
2018-12-24T00:09:19.227Z,143.75
2018-12-24T00:11:53.195Z,148.50
2018-12-24T00:14:25.187Z,154.50
2018-12-24T00:16:57.085Z,153.25
2018-12-24T00:19:28.719Z,155.00
2018-12-24T00:22:00.820Z,149.50
2018-12-24T00:24:40.158Z,155.75
2018-12-24T00:27:17.141Z,147.00
2018-12-24T00:29:48.945Z,138.25
2018-12-24T00:32:22.296Z,155.00
2018-12-24T00:34:54.207Z,150.25
2018-12-24T00:37:26.057Z,152.25
2018-12-24T00:39:58.201Z,145.50
2018-12-24T00:42:49.810Z,148.75
2018-12-24T00:45:21.717Z,141.25
2018-12-24T00:47:53.600Z,149.25
2018-12-24T00:50:25.422Z,151.00
2018-12-24T00:52:59.652Z,147.75
2018-12-24T00:55:32.876Z,153.25
2018-12-24T00:58:05.599Z,143.25
2018-12-24T01:00:37.755Z,158.75
2018-12-24T01:03:10.714Z,139.00
2018-12-24T01:05:42.888Z,154.50
2018-12-24T01:08:16.818Z,148.00
2018-12-24T01:10:49.305Z,162.00
2018-12-24T01:13:21.358Z,188.50
2018-12-24T01:15:53.106Z,188.75
2018-12-24T01:18:25.257Z,205.00
2018-12-24T01:20:56.994Z,225.80
2018-12-24T01:23:29.255Z,202.40
2018-12-24T01:26:01.075Z,201.25
2018-12-24T01:28:32.975Z,181.75
2018-12-24T01:31:04.931Z,198.25
2018-12-24T01:33:36.921Z,206.75
2018-12-24T01:36:09.642Z,197.25
2018-12-24T01:38:41.452Z,203.25
2018-12-24T01:41:13.650Z,204.75
2018-12-24T01:43:45.742Z,248.20
2018-12-24T01:46:17.745Z,254.20
2018-12-24T01:48:49.888Z,275.60
2018-12-24T01:51:21.774Z,276.20
2018-12-24T01:53:53.560Z,253.20
2018-12-24T01:56:28.802Z,237.20
2018-12-24T01:59:01.017Z,226.75
2018-12-24T02:01:32.814Z,231.60
2018-12-24T02:04:07.122Z,224.40
2018-12-24T02:06:44.926Z,219.60
2018-12-24T02:09:17.715Z,215.00
2018-12-24T02:11:50.015Z,204.40
2018-12-24T02:14:21.916Z,210.75
2018-12-24T02:16:57.903Z,191.60
2018-12-24T02:19:31.356Z,207.00
2018-12-24T02:22:03.176Z,216.20
2018-12-24T02:24:35.312Z,210.80
2018-12-24T02:27:07.326Z,191.00
2018-12-24T02:29:47.425Z,205.00
2018-12-24T02:32:20.399Z,215.50
2018-12-24T02:34:52.305Z,193.50
2018-12-24T02:37:24.136Z,196.50
2018-12-24T02:39:55.954Z,200.75
2018-12-24T02:42:52.230Z,178.75
2018-12-24T02:45:20.620Z,205.00
2018-12-24T02:47:54.831Z,190.00
2018-12-24T02:50:26.964Z,185.00
2018-12-24T02:52:59.113Z,184.50
2018-12-24T02:58:21.867Z,180.75
2018-12-24T03:00:54.189Z,168.50
2018-12-24T03:03:26.409Z,164.25
2018-12-24T03:05:58.546Z,195.50
2018-12-24T03:08:31.332Z,198.25
2018-12-24T03:11:03.717Z,182.00
2018-12-24T03:13:37.252Z,185.25
2018-12-24T03:16:09.467Z,173.00
2018-12-24T03:18:41.421Z,172.50
2018-12-24T03:21:13.654Z,174.25
2018-12-24T03:23:45.787Z,157.75
2018-12-24T03:26:17.809Z,159.75
2018-12-24T03:28:49.619Z,159.00
2018-12-24T03:31:22.487Z,166.75
2018-12-24T03:33:54.578Z,155.25
2018-12-24T03:36:27.741Z,157.25
2018-12-24T03:38:59.736Z,136.00
2018-12-24T03:41:31.639Z,160.50
2018-12-24T03:44:04.134Z,154.75
2018-12-24T03:46:38.625Z,141.75
2018-12-24T03:49:10.486Z,141.75
2018-12-24T03:51:42.275Z,147.25
2018-12-24T03:54:14.238Z,144.75
2018-12-24T03:56:46.485Z,143.25
2018-12-24T03:59:18.283Z,140.75
2018-12-24T04:01:50.206Z,153.75
2018-12-24T04:04:22.138Z,147.50
2018-12-24T04:06:54.092Z,152.75
2018-12-24T04:09:26.258Z,157.50
2018-12-24T04:11:58.184Z,153.00
2018-12-24T04:14:30.279Z,147.75
2018-12-24T04:17:06.757Z,155.75
2018-12-24T04:19:39.555Z,148.00
2018-12-24T04:22:12.011Z,132.75
2018-12-24T04:24:47.991Z,149.25
2018-12-24T04:27:20.140Z,120.00
2018-12-24T04:29:52.188Z,126.50
2018-12-24T04:32:24.555Z,123.25
2018-12-24T04:34:56.393Z,134.50
2018-12-24T04:37:28.285Z,132.00
2018-12-24T04:40:00.311Z,134.00
2018-12-24T04:42:32.476Z,120.75
2018-12-24T04:45:09.192Z,121.75
2018-12-24T04:47:41.400Z,123.50
2018-12-24T04:50:13.454Z,132.25
2018-12-24T04:52:46.429Z,109.00
2018-12-24T04:55:18.475Z,114.25
2018-12-24T04:57:50.275Z,122.00
2018-12-24T05:00:23.279Z,127.25
2018-12-24T05:02:59.675Z,131.50
2018-12-24T05:05:31.564Z,127.00
2018-12-24T05:08:03.501Z,116.50
2018-12-24T05:10:35.377Z,116.75
2018-12-24T05:13:08.560Z,118.75
2018-12-24T05:15:40.847Z,125.50
2018-12-24T05:18:12.947Z,128.25
2018-12-24T05:20:46.955Z,119.50
2018-12-24T05:23:19.430Z,125.25
2018-12-24T05:25:51.393Z,113.75
2018-12-24T05:28:23.484Z,117.00
2018-12-24T05:30:55.391Z,124.50
2018-12-24T05:33:28.568Z,122.00
2018-12-24T05:36:00.465Z,128.50
2018-12-24T05:38:33.144Z,126.50
2018-12-24T05:41:05.318Z,133.25
2018-12-24T05:43:38.348Z,122.25
2018-12-24T05:46:10.375Z,123.75
2018-12-24T05:48:42.524Z,122.50
2018-12-24T05:51:15.290Z,130.50
2018-12-24T05:53:47.461Z,106.50
2018-12-24T05:56:28.937Z,117.25
2018-12-24T05:59:01.597Z,119.00
2018-12-24T06:01:52.675Z,120.75
2018-12-24T06:04:26.318Z,111.75
2018-12-24T06:06:58.394Z,113.75
2018-12-24T06:09:30.484Z,100.25
2018-12-24T06:12:02.469Z,87.00
2018-12-24T06:14:38.839Z,107.50
2018-12-24T06:17:11.335Z,106.50
2018-12-24T06:19:43.126Z,100.75
2018-12-24T06:22:14.762Z,99.50
2018-12-24T06:24:46.853Z,96.00
2018-12-24T06:27:18.859Z,104.00
2018-12-24T06:29:51.054Z,112.25
2018-12-24T06:32:22.885Z,89.50
2018-12-24T06:34:54.849Z,100.00
2018-12-24T06:37:26.685Z,102.25
2018-12-24T06:39:58.755Z,107.00
2018-12-24T06:42:31.629Z,104.50
2018-12-24T06:45:03.823Z,118.25
2018-12-24T06:47:36.169Z,108.25
2018-12-24T06:50:08.285Z,107.25
2018-12-24T06:52:40.753Z,110.25
2018-12-24T06:55:12.602Z,105.75
2018-12-24T06:57:45.765Z,107.00
2018-12-24T07:00:17.596Z,106.25
2018-12-24T07:02:49.481Z,108.25
2018-12-24T07:05:21.333Z,107.00
2018-12-24T07:07:53.389Z,98.25
2018-12-24T07:10:25.240Z,102.75
2018-12-24T07:12:57.305Z,89.25
2018-12-24T07:15:29.500Z,106.50
2018-12-24T07:18:01.929Z,100.25
2018-12-24T07:20:33.966Z,108.25
2018-12-24T07:23:05.586Z,92.25
2018-12-24T07:25:37.933Z,105.25
2018-12-24T07:28:09.923Z,107.25
2018-12-24T07:30:41.815Z,92.75
2018-12-24T07:33:13.746Z,99.00
2018-12-24T07:35:45.575Z,97.25
2018-12-24T07:38:17.476Z,105.00
2018-12-24T07:40:49.285Z,108.50
2018-12-24T07:43:21.227Z,107.25
2018-12-24T07:45:53.011Z,93.50
2018-12-24T07:48:25.244Z,98.75
2018-12-24T07:50:57.364Z,102.50
2018-12-24T07:53:29.528Z,98.25
2018-12-24T07:56:06.717Z,110.00
2018-12-24T07:58:39.590Z,100.50
2018-12-24T08:01:15.035Z,94.75
2018-12-24T08:03:47.231Z,89.25
2018-12-24T08:06:19.115Z,106.75
2018-12-24T08:08:51.189Z,101.25
2018-12-24T08:11:23.007Z,95.25
2018-12-24T08:13:56.889Z,92.60
2018-12-24T08:16:28.986Z,97.40
2018-12-24T08:19:01.361Z,93.20
2018-12-24T08:21:33.320Z,100.50
2018-12-24T08:24:06.257Z,96.00
2018-12-24T08:26:38.039Z,93.80
2018-12-24T08:29:09.900Z,92.20
2018-12-24T08:31:41.745Z,95.20
2018-12-24T08:34:13.573Z,92.80
2018-12-24T08:36:45.572Z,92.00
2018-12-24T08:39:17.545Z,92.00
2018-12-24T08:41:49.742Z,93.00
2018-12-24T08:44:21.691Z,87.40
2018-12-24T08:46:53.637Z,91.00
2018-12-24T08:49:25.949Z,87.60
2018-12-24T08:51:57.747Z,92.60
2018-12-24T08:54:29.774Z,90.60
2018-12-24T08:57:01.966Z,84.40
2018-12-24T08:59:33.843Z,83.40
2018-12-24T09:02:05.860Z,98.00
2018-12-24T09:04:37.575Z,90.40
2018-12-24T09:07:09.698Z,98.80
2018-12-24T09:09:41.504Z,101.75
2018-12-24T09:12:13.335Z,91.00
2018-12-24T09:14:50.212Z,99.00
2018-12-24T09:17:19.806Z,101.25
2018-12-24T09:19:51.840Z,92.75
2018-12-24T09:22:23.839Z,106.75
2018-12-24T09:24:56.018Z,102.75
2018-12-24T09:27:28.029Z,98.25
2018-12-24T09:29:59.976Z,107.00
2018-12-24T09:32:31.901Z,105.50
2018-12-24T09:35:07.090Z,105.00
2018-12-24T09:37:46.875Z,106.25
2018-12-24T09:40:18.960Z,115.50
2018-12-24T09:42:51.790Z,120.00
2018-12-24T09:45:23.618Z,115.00
2018-12-24T09:47:55.652Z,120.00
2018-12-24T09:50:27.913Z,120.25
2018-12-24T09:53:00.124Z,120.75
2018-12-24T09:55:31.990Z,115.50
2018-12-24T09:58:03.942Z,125.50
2018-12-24T10:00:35.804Z,114.25
2018-12-24T10:03:17.202Z,112.25
2018-12-24T10:05:49.121Z,126.00
2018-12-24T10:08:24.042Z,123.50
2018-12-24T10:10:55.802Z,130.25
2018-12-24T10:13:28.011Z,126.75
2018-12-24T10:15:59.985Z,120.50
2018-12-24T10:18:31.728Z,128.00
2018-12-24T10:21:03.987Z,118.00
2018-12-24T10:23:36.097Z,123.25
2018-12-24T10:26:08.093Z,130.75
2018-12-24T10:28:40.161Z,130.00
2018-12-24T10:31:12.098Z,131.25
2018-12-24T10:33:43.953Z,135.50
2018-12-24T10:36:15.838Z,127.25
2018-12-24T10:38:47.836Z,121.50
2018-12-24T10:41:22.995Z,123.50
2018-12-24T10:43:58.394Z,123.50
2018-12-24T10:46:30.353Z,115.00
2018-12-24T10:49:02.469Z,120.75
2018-12-24T10:51:38.806Z,103.50
2018-12-24T10:54:11.015Z,115.75
2018-12-24T10:56:43.005Z,116.75
2018-12-24T10:59:15.068Z,117.00
2018-12-24T11:01:47.084Z,121.75
2018-12-24T11:04:19.025Z,116.50
2018-12-24T11:06:50.599Z,122.75
2018-12-24T11:09:22.819Z,125.00
2018-12-24T11:11:54.712Z,123.50
2018-12-24T11:14:26.700Z,125.00
2018-12-24T11:16:58.801Z,122.50
2018-12-24T11:19:31.109Z,126.25
2018-12-24T11:22:03.229Z,124.75
2018-12-24T11:24:35.218Z,121.25
2018-12-24T11:27:06.840Z,122.00
2018-12-24T11:29:38.794Z,114.00
2018-12-24T11:32:10.929Z,116.75
2018-12-24T11:34:43.495Z,117.50
2018-12-24T11:37:15.279Z,110.75
2018-12-24T11:39:47.550Z,126.75
2018-12-24T11:42:19.427Z,119.50
2018-12-24T11:44:51.309Z,120.25
2018-12-24T11:47:23.144Z,106.00
2018-12-24T11:49:55.193Z,115.25
2018-12-24T11:52:27.649Z,118.50
2018-12-24T11:54:59.551Z,122.00
2018-12-24T11:57:31.371Z,121.75
2018-12-24T12:00:03.380Z,119.75
2018-12-24T12:02:35.121Z,120.50
2018-12-24T12:05:07.080Z,122.50
2018-12-24T12:07:40.005Z,116.50
2018-12-24T12:10:11.945Z,121.25
2018-12-24T12:12:43.820Z,124.00
2018-12-24T12:15:15.681Z,114.00
2018-12-24T12:17:47.692Z,126.00
2018-12-24T12:20:19.828Z,123.75
2018-12-24T12:22:51.964Z,131.00
2018-12-24T12:25:23.829Z,122.50
2018-12-24T12:27:55.565Z,137.00
2018-12-24T12:30:27.878Z,119.75
2018-12-24T12:32:59.715Z,128.25
2018-12-24T12:35:31.548Z,133.00
2018-12-24T12:38:03.485Z,138.00
2018-12-24T12:40:36.745Z,147.50
2018-12-24T12:43:08.960Z,152.75
2018-12-24T12:45:41.044Z,152.00
2018-12-24T12:48:12.900Z,139.50
2018-12-24T12:50:45.930Z,136.75
2018-12-24T12:53:18.021Z,142.00
2018-12-24T12:55:49.962Z,135.00
2018-12-24T12:58:23.722Z,134.00
2018-12-24T13:00:56.327Z,136.00
2018-12-24T13:03:28.174Z,137.25
2018-12-24T13:05:59.962Z,136.25
2018-12-24T13:08:31.645Z,138.50
2018-12-24T13:11:03.649Z,138.00
2018-12-24T13:13:36.861Z,135.25
2018-12-24T13:16:09.979Z,139.50
2018-12-24T13:18:41.856Z,138.50
2018-12-24T13:21:14.246Z,139.50
2018-12-24T13:23:46.393Z,140.50
2018-12-24T13:26:18.474Z,139.75
2018-12-24T13:28:50.255Z,140.75
2018-12-24T13:31:22.440Z,137.25
2018-12-24T13:33:54.253Z,143.00
2018-12-24T13:36:26.078Z,147.75
2018-12-24T13:38:58.006Z,147.00
2018-12-24T13:41:30.013Z,147.75
2018-12-24T13:44:01.709Z,154.25
2018-12-24T13:46:33.706Z,157.75
2018-12-24T13:49:05.731Z,152.25
2018-12-24T13:51:37.465Z,156.25
2018-12-24T13:54:09.729Z,156.75
2018-12-24T13:56:41.834Z,171.25
2018-12-24T13:59:16.755Z,176.25
2018-12-24T14:01:48.788Z,175.75
2018-12-24T14:04:20.478Z,178.75
2018-12-24T14:06:52.335Z,184.25
2018-12-24T14:09:24.417Z,174.50
2018-12-24T14:11:56.328Z,197.75
2018-12-24T14:14:28.435Z,194.00
2018-12-24T14:17:00.588Z,193.50
2018-12-24T14:19:32.687Z,196.80
2018-12-24T14:22:04.496Z,215.60
2018-12-24T14:24:37.074Z,224.50
2018-12-24T14:29:56.495Z,229.50
2018-12-24T14:32:27.829Z,236.20
2018-12-24T14:34:59.206Z,242.00
2018-12-24T14:37:30.531Z,225.40
2018-12-24T14:40:02.440Z,236.00
2018-12-24T14:42:33.605Z,247.40
2018-12-24T14:45:05.117Z,243.40
2018-12-24T14:47:36.500Z,232.00
2018-12-24T14:50:08.763Z,232.80
2018-12-24T14:52:40.288Z,247.20
2018-12-24T14:55:12.319Z,239.40
2018-12-24T14:57:43.734Z,257.00
2018-12-24T15:00:15.292Z,249.40
2018-12-24T15:02:46.686Z,260.80
2018-12-24T15:05:18.076Z,247.80
2018-12-24T15:07:49.420Z,256.80
2018-12-24T15:10:21.240Z,253.80
2018-12-24T15:12:52.505Z,244.80
2018-12-24T15:15:23.970Z,258.00
2018-12-24T15:17:55.231Z,257.80
2018-12-24T15:20:26.705Z,253.20
2018-12-24T15:22:58.100Z,256.60
2018-12-24T15:25:29.955Z,244.80
2018-12-24T15:28:01.724Z,256.33
2018-12-24T15:30:33.152Z,268.67
2018-12-24T15:33:04.642Z,261.20
2018-12-24T15:35:36.424Z,252.67
2018-12-24T15:38:12.255Z,276.40
2018-12-24T15:40:44.067Z,266.50
2018-12-24T15:43:16.364Z,268.20
2018-12-24T15:45:48.116Z,274.20
2018-12-24T15:48:19.894Z,284.40
2018-12-24T15:50:51.219Z,271.40
2018-12-24T15:53:22.676Z,275.80
2018-12-24T15:55:54.709Z,291.60
2018-12-24T15:58:29.278Z,281.40
2018-12-24T16:01:01.026Z,271.20
2018-12-24T16:03:36.836Z,286.00
2018-12-24T16:06:05.611Z,280.80
2018-12-24T16:08:37.250Z,276.60
2018-12-24T16:11:08.899Z,270.60
2018-12-24T16:13:40.569Z,275.40
2018-12-24T16:16:11.960Z,279.00
2018-12-24T16:18:43.649Z,288.40
2018-12-24T16:21:16.330Z,284.20
2018-12-24T16:23:48.013Z,287.20
2018-12-24T16:26:19.802Z,269.00
2018-12-24T16:28:51.270Z,263.60
2018-12-24T16:31:22.688Z,270.60
2018-12-24T16:33:54.499Z,273.00
2018-12-24T16:36:26.452Z,279.00
2018-12-24T16:38:57.903Z,272.00
2018-12-24T16:41:29.563Z,282.80
2018-12-24T16:44:01.327Z,284.60
2018-12-24T16:46:33.255Z,265.20
2018-12-24T16:49:04.980Z,276.33
2018-12-24T16:51:36.598Z,280.83
2018-12-24T16:54:08.344Z,273.80
2018-12-24T16:56:40.209Z,287.20
2018-12-24T16:59:11.817Z,287.60
2018-12-24T17:01:43.294Z,269.67
2018-12-24T17:04:15.064Z,287.20
2018-12-24T17:06:46.766Z,285.00
2018-12-24T17:09:22.675Z,277.20
2018-12-24T17:11:54.239Z,278.40
2018-12-24T17:14:26.055Z,287.40
2018-12-24T17:16:57.796Z,277.80
2018-12-24T17:19:29.570Z,273.80
2018-12-24T17:22:01.290Z,278.67
2018-12-24T17:24:33.249Z,273.20
2018-12-24T17:27:05.434Z,269.40
2018-12-24T17:29:36.702Z,282.67
2018-12-24T17:32:08.127Z,273.50
2018-12-24T17:34:39.388Z,276.33
2018-12-24T17:37:10.896Z,272.40
2018-12-24T17:39:42.848Z,269.00
2018-12-24T17:42:15.236Z,272.60
2018-12-24T17:44:46.693Z,278.80
2018-12-24T17:47:18.643Z,281.00
2018-12-24T17:49:50.491Z,281.80
2018-12-24T17:52:22.162Z,286.60
2018-12-24T17:54:53.942Z,271.60
2018-12-24T17:57:25.975Z,265.60
2018-12-24T17:59:57.930Z,268.00
2018-12-24T18:02:29.275Z,267.00
2018-12-24T18:05:00.976Z,266.20
2018-12-24T18:07:32.582Z,270.60
2018-12-24T18:10:07.387Z,272.40
2018-12-24T18:12:38.722Z,271.60
2018-12-24T18:15:10.486Z,265.60
2018-12-24T18:17:42.399Z,276.60
2018-12-24T18:20:14.173Z,264.60
2018-12-24T18:22:45.808Z,268.80
2018-12-24T18:25:17.463Z,279.20
2018-12-24T18:27:49.351Z,262.40
2018-12-24T18:30:21.048Z,279.20
2018-12-24T18:32:52.380Z,253.40
2018-12-24T18:35:24.008Z,254.80
2018-12-24T18:37:55.755Z,249.33
2018-12-24T18:40:27.433Z,259.83
2018-12-24T18:42:59.425Z,241.80
2018-12-24T18:45:30.827Z,247.60
2018-12-24T18:48:02.340Z,233.40
2018-12-24T18:50:34.223Z,243.20
2018-12-24T18:53:05.657Z,222.20
2018-12-24T18:55:36.940Z,232.00
2018-12-24T18:58:08.767Z,246.80
2018-12-24T19:00:40.543Z,248.00
2018-12-24T19:03:12.175Z,244.60
2018-12-24T19:05:44.153Z,237.40
2018-12-24T19:08:15.426Z,226.00
2018-12-24T19:10:47.276Z,235.60
2018-12-24T19:13:18.954Z,229.00
2018-12-24T19:15:50.628Z,235.60
2018-12-24T19:18:22.132Z,232.00
2018-12-24T19:20:53.933Z,221.50
2018-12-24T19:23:25.563Z,231.00
2018-12-24T19:25:57.352Z,215.60
2018-12-24T19:28:29.739Z,203.40
2018-12-24T19:31:01.498Z,221.60
2018-12-24T19:33:34.710Z,210.40
2018-12-24T19:36:06.324Z,221.60
2018-12-24T19:38:38.213Z,200.00
2018-12-24T19:41:09.749Z,217.60
2018-12-24T19:43:41.819Z,226.20
2018-12-24T19:46:13.935Z,223.60
2018-12-24T19:48:49.791Z,199.80
2018-12-24T19:51:21.211Z,207.20
2018-12-24T19:53:52.628Z,206.40
2018-12-24T19:56:24.577Z,201.00
2018-12-24T19:58:56.861Z,197.80
2018-12-24T20:01:28.538Z,203.25
2018-12-24T20:04:00.294Z,210.00
2018-12-24T20:06:31.998Z,202.75
2018-12-24T20:09:03.792Z,217.25
2018-12-24T20:11:35.325Z,204.20
2018-12-24T20:14:06.935Z,202.00
2018-12-24T20:16:38.545Z,195.25
2018-12-24T20:19:10.488Z,199.25
2018-12-24T20:21:42.296Z,197.00
2018-12-24T20:24:13.982Z,197.75
2018-12-24T20:26:45.498Z,196.75
2018-12-24T20:29:17.425Z,191.25
2018-12-24T20:31:49.031Z,189.50
2018-12-24T20:34:20.764Z,189.00
2018-12-24T20:36:52.350Z,186.00
2018-12-24T20:39:24.100Z,164.50
2018-12-24T20:41:55.854Z,190.50
2018-12-24T20:44:27.672Z,185.25
2018-12-24T20:46:59.454Z,171.75
2018-12-24T20:49:31.036Z,183.75
2018-12-24T20:52:02.793Z,178.00
2018-12-24T20:54:34.379Z,179.25
2018-12-24T20:57:06.162Z,174.25
2018-12-24T20:59:38.629Z,176.00
2018-12-24T21:02:10.078Z,184.75
2018-12-24T21:04:41.842Z,178.50
2018-12-24T21:07:13.467Z,174.00
2018-12-24T21:09:45.026Z,175.50
2018-12-24T21:12:16.514Z,171.00
2018-12-24T21:14:48.253Z,170.50
2018-12-24T21:17:19.780Z,173.75
2018-12-24T21:19:51.561Z,183.50
2018-12-24T21:22:23.190Z,168.00
2018-12-24T21:24:55.131Z,173.25
2018-12-24T21:27:26.733Z,161.00
2018-12-24T21:29:58.850Z,159.25
2018-12-24T21:32:30.388Z,155.00
2018-12-24T21:35:02.292Z,167.50
2018-12-24T21:37:34.021Z,153.50
2018-12-24T21:40:05.910Z,157.50
2018-12-24T21:42:37.591Z,165.75
2018-12-24T21:45:09.468Z,166.50
2018-12-24T21:47:43.741Z,162.75
2018-12-24T21:50:15.351Z,141.25
2018-12-24T21:52:46.703Z,152.50
2018-12-24T21:55:18.234Z,141.25
2018-12-24T21:57:49.894Z,157.50
2018-12-24T22:00:21.968Z,149.25
2018-12-24T22:02:53.360Z,155.75
2018-12-24T22:05:24.899Z,159.75
2018-12-24T22:07:56.460Z,148.50
2018-12-24T22:10:28.068Z,144.50
2018-12-24T22:12:59.585Z,151.75
2018-12-24T22:15:31.204Z,147.75
2018-12-24T22:18:02.875Z,155.00
2018-12-24T22:20:34.476Z,151.25
2018-12-24T22:23:08.062Z,151.00
2018-12-24T22:25:39.812Z,141.00
2018-12-24T22:28:13.982Z,159.75
2018-12-24T22:30:47.344Z,147.75
2018-12-24T22:33:19.097Z,148.50
2018-12-24T22:35:50.569Z,149.25
2018-12-24T22:38:21.954Z,142.25
2018-12-24T22:40:53.887Z,142.75
2018-12-24T22:43:25.420Z,148.50
2018-12-24T22:45:57.340Z,148.00
2018-12-24T22:48:31.128Z,153.75
2018-12-24T22:51:02.781Z,143.75
2018-12-24T22:53:34.332Z,143.25
2018-12-24T22:56:06.064Z,141.25
2018-12-24T22:58:37.703Z,132.00
2018-12-24T23:01:09.593Z,143.25
2018-12-24T23:03:41.049Z,142.00
2018-12-24T23:06:12.782Z,135.25
2018-12-24T23:08:44.515Z,134.50
2018-12-24T23:11:15.984Z,135.00
2018-12-24T23:13:47.590Z,135.75
2018-12-24T23:16:19.017Z,146.00
2018-12-24T23:18:50.745Z,141.25
2018-12-24T23:21:22.335Z,133.50
2018-12-24T23:23:53.833Z,140.50
2018-12-24T23:26:25.526Z,143.00
2018-12-24T23:28:57.151Z,141.00
2018-12-24T23:31:29.197Z,117.75
2018-12-24T23:34:00.578Z,142.00
2018-12-24T23:36:32.099Z,136.00
2018-12-24T23:39:04.863Z,138.00
2018-12-24T23:41:36.149Z,134.50
2018-12-24T23:44:07.479Z,143.50
2018-12-24T23:46:38.855Z,134.00
2018-12-24T23:49:10.503Z,132.00
2018-12-24T23:51:42.565Z,132.50
2018-12-24T23:54:13.854Z,138.75
2018-12-24T23:56:45.350Z,140.50
2018-12-24T23:59:16.901Z,140.00
